Time;durP1;ratioP1;P1;durP2;ratioP2;P2;SDS_P1;SDS_P2;PMS_P1;PMS_P2;Temp;Humidity;BMP_temperature;BMP_pressure;BME280_temperature;BME280_humidity;BME280_pressure;Samples;Min_cycle;Max_cycle;Signal;HPM_P1;HPM_P2
2023/11/26 00:01:58;;;;;;;1.60;1.50;;;22.60;61.70;;;;;;5054735;28;20440;-85
2023/11/26 00:04:24;;;;;;;1.40;1.30;;;22.60;61.90;;;;;;5054625;28;21070;-85
2023/11/26 00:06:51;;;;;;;1.63;1.20;;;22.60;61.80;;;;;;5054602;28;20443;-85
2023/11/26 00:09:18;;;;;;;1.40;1.30;;;22.60;61.90;;;;;;5054585;28;20445;-85
2023/11/26 00:11:46;;;;;;;2.80;1.50;;;22.60;62.00;;;;;;5054507;28;20445;-85
2023/11/26 00:14:13;;;;;;;1.40;1.23;;;22.60;62.10;;;;;;5054420;28;20457;-85
2023/11/26 00:16:40;;;;;;;1.83;1.60;;;22.60;62.10;;;;;;5054707;28;20433;-86
2023/11/26 00:19:08;;;;;;;2.00;1.23;;;22.60;62.20;;;;;;5054708;28;20445;-85
2023/11/26 00:21:34;;;;;;;1.60;1.20;;;22.50;62.00;;;;;;5054150;28;20436;-85
2023/11/26 00:24:01;;;;;;;1.60;1.27;;;22.50;62.00;;;;;;5054211;28;20531;-85
2023/11/26 00:26:28;;;;;;;2.93;1.63;;;22.50;62.10;;;;;;5054163;28;20456;-85
2023/11/26 00:28:56;;;;;;;1.90;1.67;;;22.50;62.10;;;;;;5045366;28;20452;-85
2023/11/26 00:31:23;;;;;;;1.80;1.70;;;22.50;62.20;;;;;;5053804;28;20952;-85
2023/11/26 00:33:51;;;;;;;1.60;1.33;;;22.50;62.00;;;;;;5054001;28;20433;-85
2023/11/26 00:36:19;;;;;;;2.43;1.43;;;22.40;62.20;;;;;;5054106;28;20433;-85
2023/11/26 00:38:47;;;;;;;1.17;1.07;;;22.40;62.30;;;;;;5053988;28;20928;-86
2023/11/26 00:41:14;;;;;;;1.40;1.20;;;22.40;62.20;;;;;;5053913;28;20792;-85
2023/11/26 00:43:41;;;;;;;1.37;1.27;;;22.40;62.10;;;;;;5053952;28;20988;-85
2023/11/26 00:46:09;;;;;;;2.23;2.03;;;22.40;62.20;;;;;;5053991;28;20528;-85
2023/11/26 00:48:37;;;;;;;1.60;1.30;;;22.40;62.20;;;;;;5054037;28;20444;-86
2023/11/26 00:51:04;;;;;;;1.37;1.27;;;22.40;62.20;;;;;;5053673;28;20502;-85
2023/11/26 00:53:32;;;;;;;1.63;1.50;;;22.40;62.20;;;;;;5053696;28;20972;-85
2023/11/26 00:55:59;;;;;;;1.50;1.30;;;22.40;62.30;;;;;;5053809;28;20437;-85
2023/11/26 00:58:26;;;;;;;1.77;1.27;;;22.40;62.20;;;;;;5053854;28;20490;-85
2023/11/26 01:00:52;;;;;;;2.00;1.63;;;22.40;62.30;;;;;;5053669;28;20441;-85
2023/11/26 01:03:21;;;;;;;2.30;1.40;;;22.40;62.30;;;;;;5053436;28;20489;-85
2023/11/26 01:05:48;;;;;;;1.50;1.40;;;22.40;62.50;;;;;;5053690;28;20438;-85
2023/11/26 01:08:15;;;;;;;1.70;1.60;;;22.50;62.70;;;;;;5053895;28;20441;-85
2023/11/26 01:10:42;;;;;;;2.23;1.40;;;22.40;62.60;;;;;;5053544;28;20891;-85
2023/11/26 01:13:09;;;;;;;1.60;1.30;;;22.40;62.60;;;;;;5053650;28;20559;-86
2023/11/26 01:15:37;;;;;;;1.37;1.27;;;22.40;62.40;;;;;;5053673;28;20434;-86
2023/11/26 01:18:03;;;;;;;1.40;1.27;;;22.40;62.40;;;;;;5053443;28;20438;-85
2023/11/26 01:20:32;;;;;;;2.10;1.80;;;22.40;62.40;;;;;;5053397;28;20775;-85
2023/11/26 01:22:58;;;;;;;1.70;1.60;;;22.40;62.40;;;;;;5053217;28;20484;-85
2023/11/26 01:25:25;;;;;;;1.97;1.30;;;22.40;62.30;;;;;;5053363;28;20433;-85
2023/11/26 01:27:52;;;;;;;1.53;1.30;;;22.40;62.30;;;;;;5053274;28;20460;-85
2023/11/26 01:30:19;;;;;;;1.63;1.40;;;22.40;62.30;;;;;;5053428;28;20532;-85
2023/11/26 01:32:46;;;;;;;1.67;1.43;;;22.40;62.30;;;;;;5058175;28;20440;-85
2023/11/26 01:35:13;;;;;;;1.73;1.47;;;22.40;62.30;;;;;;5059920;28;20440;-85
2023/11/26 01:37:41;;;;;;;1.43;1.33;;;22.40;62.20;;;;;;5059738;28;20499;-85
2023/11/26 01:40:10;;;;;;;1.37;1.27;;;22.60;62.50;;;;;;5059698;28;20523;-85
2023/11/26 01:42:36;;;;;;;1.40;1.30;;;22.40;62.30;;;;;;5059815;28;20487;-85
2023/11/26 01:45:04;;;;;;;3.20;1.73;;;22.40;62.10;;;;;;5059790;28;20481;-86
2023/11/26 01:47:31;;;;;;;1.70;1.30;;;22.40;62.10;;;;;;5060527;28;20596;-85
2023/11/26 01:49:58;;;;;;;1.43;1.20;;;22.50;62.20;;;;;;5060048;28;20443;-85
2023/11/26 01:52:25;;;;;;;1.30;1.20;;;22.40;62.20;;;;;;5059840;28;20429;-86
2023/11/26 01:54:53;;;;;;;1.50;1.40;;;22.40;62.10;;;;;;5059709;28;21006;-85
2023/11/26 01:57:21;;;;;;;2.00;1.60;;;22.40;62.10;;;;;;5059627;28;20437;-85
2023/11/26 01:59:47;;;;;;;1.40;1.30;;;22.40;62.10;;;;;;5059756;28;20437;-85
2023/11/26 02:02:14;;;;;;;2.23;1.07;;;22.50;62.10;;;;;;5059576;28;20923;-85
2023/11/26 02:04:41;;;;;;;1.77;1.20;;;22.40;62.00;;;;;;5059739;28;20839;-85
2023/11/26 02:07:09;;;;;;;1.63;1.27;;;22.40;62.10;;;;;;5059628;28;20433;-85
2023/11/26 02:09:37;;;;;;;2.50;1.67;;;22.50;62.10;;;;;;5059436;28;20984;-85
2023/11/26 02:12:09;;;;;;;1.40;1.30;;;22.50;62.10;;;;;;5060023;28;20955;-85
2023/11/26 02:14:36;;;;;;;1.40;1.30;;;22.50;62.00;;;;;;5059638;28;20523;-85
2023/11/26 02:17:05;;;;;;;1.70;1.60;;;22.40;61.90;;;;;;5059688;28;20443;-85
2023/11/26 02:19:34;;;;;;;2.00;1.40;;;22.50;62.00;;;;;;5059773;28;20445;-96
2023/11/26 02:22:01;;;;;;;1.40;1.30;;;22.40;61.90;;;;;;5059538;28;20441;-85
2023/11/26 02:24:30;;;;;;;1.40;1.27;;;22.50;62.10;;;;;;5059341;28;20492;-85
2023/11/26 02:26:59;;;;;;;1.23;1.13;;;22.50;62.00;;;;;;5059691;28;20437;-85
2023/11/26 02:29:26;;;;;;;1.40;1.30;;;22.50;62.00;;;;;;5059328;28;20443;-86
2023/11/26 02:31:52;;;;;;;3.67;1.40;;;22.40;61.90;;;;;;5059227;28;20429;-85
2023/11/26 02:34:19;;;;;;;1.30;1.10;;;22.50;62.00;;;;;;5059338;28;20924;-85
2023/11/26 02:36:46;;;;;;;1.40;1.10;;;22.40;61.90;;;;;;5059522;28;20456;-86
2023/11/26 02:39:13;;;;;;;1.70;1.50;;;22.50;62.00;;;;;;5059436;28;20947;-85
2023/11/26 02:41:41;;;;;;;1.80;1.33;;;22.40;61.90;;;;;;5059287;28;20433;-85
2023/11/26 02:44:09;;;;;;;1.50;1.40;;;22.50;62.00;;;;;;5057005;28;20481;-85
2023/11/26 02:46:36;;;;;;;1.27;1.17;;;22.40;62.00;;;;;;5056262;28;20444;-85
2023/11/26 02:49:03;;;;;;;1.37;1.27;;;22.60;62.00;;;;;;5056085;28;20448;-85
2023/11/26 02:51:30;;;;;;;1.60;1.23;;;22.50;62.00;;;;;;5056099;28;20528;-85
2023/11/26 02:53:57;;;;;;;1.50;1.37;;;22.40;61.80;;;;;;5055995;28;20453;-85
2023/11/26 02:56:25;;;;;;;1.40;1.20;;;22.40;61.80;;;;;;5056094;28;20441;-85
2023/11/26 02:58:52;;;;;;;1.40;1.30;;;22.50;61.80;;;;;;5055734;28;20924;-85
2023/11/26 03:01:21;;;;;;;1.30;1.20;;;22.50;62.70;;;;;;5055993;28;20885;-85
2023/11/26 03:03:48;;;;;;;1.63;1.13;;;22.50;61.90;;;;;;5055862;28;20851;-85
2023/11/26 03:06:15;;;;;;;1.60;1.27;;;22.50;61.80;;;;;;5055967;28;20425;-85
2023/11/26 03:08:43;;;;;;;1.70;1.40;;;22.50;61.90;;;;;;5055699;28;20466;-85
2023/11/26 03:13:55;;;;;;;1.30;1.17;;;22.40;61.60;;;;;;5055777;28;20409;-85
2023/11/26 03:16:23;;;;;;;1.60;1.17;;;22.40;61.70;;;;;;5055759;28;20446;-85
2023/11/26 03:18:52;;;;;;;1.27;1.17;;;22.40;61.70;;;;;;5055665;28;20480;-85
2023/11/26 03:21:26;;;;;;;1.30;1.20;;;22.40;61.80;;;;;;5055468;28;20456;-85
2023/11/26 03:23:53;;;;;;;1.50;1.40;;;22.40;61.70;;;;;;5055433;28;20514;-85
2023/11/26 03:26:25;;;;;;;1.47;1.37;;;22.40;61.60;;;;;;5055568;28;20441;-85
2023/11/26 03:28:52;;;;;;;1.30;1.10;;;22.40;61.50;;;;;;5055139;28;20449;-85
2023/11/26 03:31:19;;;;;;;1.30;1.20;;;22.40;61.70;;;;;;5055437;28;20958;-85
2023/11/26 03:33:47;;;;;;;1.20;1.00;;;22.40;61.60;;;;;;5055419;28;20430;-85
2023/11/26 03:36:14;;;;;;;1.40;1.30;;;22.40;61.60;;;;;;5055037;28;20445;-85
2023/11/26 03:38:41;;;;;;;1.37;1.27;;;22.40;61.60;;;;;;5055001;28;20440;-85
2023/11/26 03:41:08;;;;;;;1.40;1.20;;;22.40;61.60;;;;;;5055118;28;20955;-86
2023/11/26 03:43:35;;;;;;;1.83;1.20;;;22.50;61.70;;;;;;5055130;28;20925;-85
2023/11/26 03:46:02;;;;;;;1.80;1.40;;;22.50;61.80;;;;;;5055126;28;20473;-85
2023/11/26 03:48:28;;;;;;;1.30;1.20;;;22.40;61.60;;;;;;5054905;28;20476;-85
2023/11/26 03:50:56;;;;;;;1.90;1.60;;;22.40;61.70;;;;;;5055073;28;20436;-85
2023/11/26 03:53:24;;;;;;;1.77;1.30;;;22.40;61.60;;;;;;5054800;28;20468;-85
2023/11/26 03:55:51;;;;;;;1.20;1.10;;;22.50;61.80;;;;;;5054293;28;20449;-85
2023/11/26 03:58:18;;;;;;;1.53;1.30;;;22.40;61.50;;;;;;5054855;28;20440;-85
2023/11/26 04:00:45;;;;;;;1.60;1.40;;;22.40;61.50;;;;;;5054845;28;20438;-85
2023/11/26 04:03:12;;;;;;;1.53;1.43;;;22.40;61.60;;;;;;5054704;28;20807;-85
2023/11/26 04:05:39;;;;;;;1.40;1.30;;;22.40;61.40;;;;;;5054673;28;20488;-85
2023/11/26 04:08:08;;;;;;;1.40;1.30;;;22.40;61.50;;;;;;5054449;28;20448;-85
2023/11/26 04:10:35;;;;;;;1.60;1.40;;;22.40;61.50;;;;;;5054256;28;20882;-85
2023/11/26 04:13:02;;;;;;;1.20;1.00;;;22.40;61.50;;;;;;5055246;28;20459;-85
2023/11/26 04:15:28;;;;;;;1.47;1.37;;;22.40;61.50;;;;;;5054628;28;20446;-85
2023/11/26 04:17:55;;;;;;;1.10;1.00;;;22.40;61.60;;;;;;5054466;28;20444;-85
2023/11/26 04:20:22;;;;;;;1.97;1.87;;;22.40;61.60;;;;;;5054511;28;20434;-85
2023/11/26 04:22:49;;;;;;;1.47;1.37;;;22.40;61.50;;;;;;5054429;28;20444;-86
2023/11/26 04:25:17;;;;;;;1.23;1.13;;;22.40;61.50;;;;;;5054247;28;20487;-85
2023/11/26 04:27:44;;;;;;;1.43;1.10;;;22.40;61.70;;;;;;5054269;28;20436;-85
2023/11/26 04:30:12;;;;;;;1.33;1.23;;;22.40;61.50;;;;;;5054103;28;20440;-86
2023/11/26 04:32:39;;;;;;;1.40;1.27;;;22.40;61.40;;;;;;5054069;28;20433;-86
2023/11/26 04:35:07;;;;;;;1.70;1.40;;;22.40;61.50;;;;;;5054276;28;20433;-85
2023/11/26 04:37:34;;;;;;;2.53;1.50;;;22.40;61.60;;;;;;5054367;28;20515;-84
2023/11/26 04:40:01;;;;;;;1.60;1.10;;;22.40;61.70;;;;;;5053956;28;20433;-85
2023/11/26 04:42:29;;;;;;;1.87;1.77;;;22.40;61.70;;;;;;5053951;28;20437;-85
2023/11/26 04:44:56;;;;;;;1.47;1.20;;;22.40;61.70;;;;;;5053611;28;20485;-85
2023/11/26 04:47:23;;;;;;;1.50;1.30;;;22.40;61.60;;;;;;5054185;28;20496;-85
2023/11/26 04:49:50;;;;;;;1.30;1.20;;;22.40;61.50;;;;;;5053678;28;20831;-85
2023/11/26 04:52:17;;;;;;;1.77;1.57;;;22.40;61.60;;;;;;5054871;28;20446;-85
2023/11/26 04:54:44;;;;;;;1.43;1.33;;;22.40;61.50;;;;;;5053656;28;20454;-85
2023/11/26 04:57:11;;;;;;;1.20;1.10;;;22.40;61.60;;;;;;5053666;28;20430;-84
2023/11/26 04:59:39;;;;;;;1.40;1.20;;;22.40;61.50;;;;;;5053937;28;20429;-85
2023/11/26 05:02:10;;;;;;;2.30;1.60;;;22.40;61.40;;;;;;5053555;28;20495;-85
2023/11/26 05:04:36;;;;;;;1.40;1.30;;;22.40;61.40;;;;;;5053604;28;20477;-85
2023/11/26 05:07:05;;;;;;;1.30;1.20;;;22.40;61.40;;;;;;5052943;28;20437;-85
2023/11/26 05:09:32;;;;;;;1.50;1.40;;;22.40;61.40;;;;;;5053242;28;20543;-85
2023/11/26 05:12:01;;;;;;;1.40;1.23;;;22.50;61.50;;;;;;5053566;28;20464;-85
2023/11/26 05:14:29;;;;;;;1.30;1.20;;;22.50;61.40;;;;;;5053600;28;20482;-86
2023/11/26 05:16:57;;;;;;;1.93;1.30;;;22.50;61.50;;;;;;5053570;28;20865;-85
2023/11/26 05:19:23;;;;;;;1.23;1.13;;;22.50;61.50;;;;;;5053376;28;20528;-85
2023/11/26 05:21:50;;;;;;;1.40;1.27;;;22.50;61.50;;;;;;5053388;28;20441;-95
2023/11/26 05:24:17;;;;;;;1.40;1.30;;;22.50;61.40;;;;;;5053363;28;20491;-85
2023/11/26 05:26:44;;;;;;;1.60;1.40;;;22.50;61.40;;;;;;5053277;28;20430;-95
2023/11/26 05:29:12;;;;;;;1.10;1.00;;;22.50;61.30;;;;;;5053231;28;20438;-85
2023/11/26 05:31:38;;;;;;;1.30;1.20;;;22.50;61.40;;;;;;5053463;28;20441;-95
2023/11/26 05:34:07;;;;;;;1.30;1.20;;;22.50;61.20;;;;;;5053466;28;20440;-85
2023/11/26 05:36:34;;;;;;;1.60;1.30;;;22.50;61.20;;;;;;5053360;28;20943;-85
2023/11/26 05:39:00;;;;;;;1.53;1.20;;;22.60;61.40;;;;;;5053385;28;20438;-85
2023/11/26 05:41:27;;;;;;;1.30;1.17;;;22.50;61.10;;;;;;5053115;28;20463;-84
2023/11/26 05:43:54;;;;;;;1.63;1.33;;;22.60;61.20;;;;;;5053034;28;20440;-86
2023/11/26 05:46:21;;;;;;;1.80;1.30;;;22.60;61.20;;;;;;5053091;28;20440;-85
2023/11/26 05:48:47;;;;;;;1.40;1.30;;;22.60;61.20;;;;;;5053046;28;20512;-86
2023/11/26 05:51:21;;;;;;;1.30;1.13;;;22.60;61.20;;;;;;5053126;28;20437;-85
2023/11/26 05:53:47;;;;;;;1.30;1.20;;;22.60;61.30;;;;;;5052856;28;20546;-85
2023/11/26 05:56:14;;;;;;;1.70;1.40;;;22.60;61.20;;;;;;5053197;28;20902;-85
2023/11/26 05:58:41;;;;;;;1.90;1.67;;;22.60;61.20;;;;;;5053211;28;20456;-85
2023/11/26 06:01:08;;;;;;;1.23;1.13;;;22.60;61.00;;;;;;5053194;28;20429;-85
2023/11/26 06:03:36;;;;;;;1.50;1.20;;;22.60;61.20;;;;;;5053187;28;20441;-95
2023/11/26 06:06:03;;;;;;;1.40;1.20;;;22.60;61.10;;;;;;5052977;28;20489;-85
2023/11/26 06:08:31;;;;;;;1.73;1.50;;;22.60;61.10;;;;;;5053018;28;20515;-85
2023/11/26 06:10:58;;;;;;;1.40;1.30;;;22.60;61.00;;;;;;5052568;28;20469;-85
2023/11/26 06:13:27;;;;;;;1.53;1.43;;;22.60;61.20;;;;;;5052858;28;20441;-85
2023/11/26 06:15:53;;;;;;;1.33;1.20;;;22.60;61.10;;;;;;5052755;28;20459;-85
2023/11/26 06:18:20;;;;;;;1.33;1.07;;;22.60;60.80;;;;;;5054595;28;20433;-85
2023/11/26 06:20:48;;;;;;;1.30;1.10;;;22.60;60.90;;;;;;5056807;28;20441;-85
2023/11/26 06:23:15;;;;;;;1.90;1.50;;;22.60;60.90;;;;;;5056734;28;20544;-84
2023/11/26 06:25:43;;;;;;;1.60;1.33;;;22.60;60.90;;;;;;5056617;28;20511;-85
2023/11/26 06:28:10;;;;;;;1.30;1.13;;;22.60;61.00;;;;;;5056585;28;20880;-85
2023/11/26 06:30:37;;;;;;;2.60;1.50;;;22.60;60.90;;;;;;5056621;28;20436;-85
2023/11/26 06:33:04;;;;;;;1.67;1.57;;;22.60;60.80;;;;;;5056500;28;20439;-85
2023/11/26 06:35:32;;;;;;;1.50;1.40;;;22.60;60.90;;;;;;5056309;28;20429;-86
2023/11/26 06:38:01;;;;;;;1.53;1.43;;;22.60;60.80;;;;;;5056478;28;20433;-95
2023/11/26 06:40:28;;;;;;;1.30;1.20;;;22.70;60.80;;;;;;5056159;28;20940;-85
2023/11/26 06:42:56;;;;;;;1.60;1.43;;;22.60;60.90;;;;;;5056276;28;20483;-92
2023/11/26 06:45:23;;;;;;;1.50;1.20;;;22.70;60.80;;;;;;5056210;28;20488;-85
2023/11/26 06:47:50;;;;;;;1.60;1.50;;;22.60;60.80;;;;;;5056231;28;20437;-85
2023/11/26 06:50:17;;;;;;;1.37;1.20;;;22.60;60.80;;;;;;5056249;28;20433;-85
2023/11/26 06:52:44;;;;;;;1.70;1.40;;;22.70;60.90;;;;;;5055989;28;20461;-85
2023/11/26 06:55:10;;;;;;;1.50;1.40;;;22.70;61.00;;;;;;5056033;28;20448;-85
2023/11/26 06:57:37;;;;;;;1.93;1.30;;;22.60;60.80;;;;;;5055981;28;20495;-85
2023/11/26 07:00:09;;;;;;;1.57;1.40;;;22.60;60.80;;;;;;5056043;28;20441;-85
2023/11/26 07:02:36;;;;;;;1.77;1.57;;;22.70;60.90;;;;;;5055883;28;20433;-92
2023/11/26 07:05:03;;;;;;;1.50;1.33;;;22.70;60.90;;;;;;5055751;28;20480;-85
2023/11/26 07:07:30;;;;;;;1.80;1.50;;;22.70;60.60;;;;;;5055827;28;20528;-85
2023/11/26 07:09:57;;;;;;;2.57;1.83;;;22.70;60.90;;;;;;5055601;28;20473;-85
2023/11/26 07:12:26;;;;;;;1.37;1.27;;;22.60;60.50;;;;;;5055508;28;20433;-85
2023/11/26 07:14:52;;;;;;;1.60;1.50;;;22.60;60.60;;;;;;5055642;28;20956;-85
2023/11/26 07:17:22;;;;;;;1.60;1.50;;;22.70;60.80;;;;;;5055880;28;20437;-86
2023/11/26 07:19:49;;;;;;;1.80;1.70;;;22.70;60.80;;;;;;5055607;28;20933;-93
2023/11/26 07:22:16;;;;;;;1.73;1.60;;;22.70;60.80;;;;;;5055618;28;20444;-85
2023/11/26 07:24:43;;;;;;;1.40;1.30;;;22.70;60.70;;;;;;5055546;28;20444;-85
2023/11/26 07:27:10;;;;;;;1.20;1.10;;;22.70;60.70;;;;;;5055556;28;20508;-85
2023/11/26 07:29:37;;;;;;;2.00;1.50;;;22.70;60.60;;;;;;5054412;28;20448;-85
2023/11/26 07:32:05;;;;;;;2.30;1.50;;;22.70;60.70;;;;;;5055328;28;20437;-85
2023/11/26 07:34:38;;;;;;;1.70;1.50;;;22.70;60.70;;;;;;5060889;28;20452;-86
2023/11/26 07:40:28;;;;;;;2.53;1.70;;;22.80;59.20;;;;;;5045585;22;20489;-90
2023/11/26 07:42:55;;;;;;;1.80;1.70;;;22.70;59.50;;;;;;5039188;28;21040;-85
2023/11/26 07:45:24;;;;;;;2.27;1.93;;;22.70;60.10;;;;;;5034660;28;20489;-85
2023/11/26 07:47:50;;;;;;;2.60;1.47;;;22.60;60.10;;;;;;5035364;28;20447;-85
2023/11/26 07:50:18;;;;;;;1.63;1.50;;;22.70;60.20;;;;;;5034683;28;20453;-85
2023/11/26 07:52:46;;;;;;;5.30;1.93;;;22.70;60.10;;;;;;5039365;28;20461;-95
2023/11/26 07:55:14;;;;;;;2.30;1.70;;;22.70;60.20;;;;;;5054903;28;20543;-85
2023/11/26 07:57:42;;;;;;;1.60;1.50;;;22.70;60.20;;;;;;5055064;28;20473;-85
2023/11/26 08:00:10;;;;;;;6.13;1.93;;;22.70;60.20;;;;;;5055087;28;20491;-85
2023/11/26 08:02:37;;;;;;;2.13;1.80;;;22.80;60.20;;;;;;5054830;28;20436;-85
2023/11/26 08:05:04;;;;;;;2.03;1.83;;;22.80;60.40;;;;;;5054726;28;20500;-85
2023/11/26 08:07:33;;;;;;;1.93;1.63;;;22.80;60.40;;;;;;5054671;28;20437;-85
2023/11/26 08:10:09;;;;;;;2.80;1.80;;;22.80;60.20;;;;;;5054717;28;20469;-85
2023/11/26 08:12:38;;;;;;;2.40;2.17;;;22.90;60.50;;;;;;5054967;28;20429;-96
2023/11/26 08:15:12;;;;;;;4.57;2.00;;;22.80;60.50;;;;;;5054683;28;20541;-85
2023/11/26 08:17:39;;;;;;;5.23;2.00;;;22.80;60.50;;;;;;5054643;28;20433;-85
2023/11/26 08:20:10;;;;;;;4.33;2.47;;;22.80;60.60;;;;;;5054572;28;20800;-85
2023/11/26 08:22:40;;;;;;;5.70;2.33;;;22.80;60.70;;;;;;5054384;28;20457;-96
2023/11/26 08:25:11;;;;;;;4.43;2.00;;;22.90;60.80;;;;;;5054514;28;21017;-85
2023/11/26 08:27:38;;;;;;;3.70;2.27;;;22.80;60.30;;;;;;5054363;28;20441;-85
2023/11/26 08:30:12;;;;;;;4.23;2.30;;;22.80;60.50;;;;;;5054385;28;20444;-85
2023/11/26 08:32:44;;;;;;;2.50;2.30;;;22.90;60.70;;;;;;5054275;28;20812;-86
2023/11/26 08:35:12;;;;;;;2.30;2.10;;;22.90;60.20;;;;;;5054183;28;20441;-85
2023/11/26 08:37:43;;;;;;;2.50;2.30;;;22.80;59.30;;;;;;5054729;28;20449;-87
2023/11/26 08:40:13;;;;;;;2.43;2.23;;;22.80;59.30;;;;;;5053747;28;20464;-88
2023/11/26 08:42:48;;;;;;;2.40;2.20;;;22.80;59.20;;;;;;5054669;28;20477;-93
2023/11/26 08:45:15;;;;;;;4.07;2.40;;;22.80;60.30;;;;;;5055645;28;20537;-90
2023/11/26 08:47:44;;;;;;;5.93;2.40;;;22.80;60.70;;;;;;5054957;28;20463;-95
2023/11/26 08:50:11;;;;;;;3.17;2.33;;;22.90;61.10;;;;;;5054039;28;20476;-91
2023/11/26 08:52:38;;;;;;;3.60;2.73;;;22.90;60.60;;;;;;5053575;28;20465;-91
2023/11/26 08:55:09;;;;;;;3.37;2.37;;;22.90;61.00;;;;;;5053241;28;20450;-92
2023/11/26 08:57:39;;;;;;;3.97;2.17;;;22.80;60.70;;;;;;5055014;28;20520;-92
2023/11/26 09:00:09;;;;;;;19.13;2.40;;;22.80;60.60;;;;;;5062457;28;20460;-91
2023/11/26 09:02:36;;;;;;;3.20;2.33;;;22.90;60.70;;;;;;5057967;28;20944;-91
2023/11/26 09:05:07;;;;;;;4.03;2.30;;;22.90;60.90;;;;;;5056804;28;20620;-91
2023/11/26 09:07:35;;;;;;;3.63;2.33;;;22.90;60.80;;;;;;5057578;28;20433;-96
2023/11/26 09:10:02;;;;;;;5.27;2.43;;;22.90;60.80;;;;;;5055907;28;20429;-96
2023/11/26 09:12:30;;;;;;;2.50;2.30;;;22.90;60.80;;;;;;5035961;28;20442;-91
2023/11/26 09:14:57;;;;;;;8.63;3.13;;;22.90;60.80;;;;;;5035871;28;20877;-92
2023/11/26 09:17:24;;;;;;;5.20;2.37;;;23.00;61.90;;;;;;5039487;28;20430;-90
2023/11/26 09:19:51;;;;;;;4.23;2.67;;;23.00;61.40;;;;;;5077376;28;20424;-92
2023/11/26 09:22:21;;;;;;;3.90;2.63;;;23.00;61.20;;;;;;5077737;28;20844;-90
2023/11/26 09:27:22;;;;;;;2.80;2.30;;;23.00;61.50;;;;;;5066119;22;20468;-90
2023/11/26 09:29:52;;;;;;;2.97;2.70;;;23.00;61.40;;;;;;5076157;28;20440;-91
2023/11/26 09:32:19;;;;;;;2.93;2.20;;;23.00;62.00;;;;;;5077286;28;20835;-91
2023/11/26 09:42:32;;;;;;;4.33;2.33;;;22.80;59.10;;;;;;5056719;22;20476;-91
2023/11/26 09:45:00;;;;;;;3.03;2.40;;;22.80;60.10;;;;;;5055220;28;20445;-86
2023/11/26 09:47:28;;;;;;;3.33;3.00;;;22.80;61.60;;;;;;5054718;28;20492;-85
2023/11/26 09:49:55;;;;;;;5.87;2.50;;;22.80;61.60;;;;;;5041425;28;20502;-93
2023/11/26 09:52:22;;;;;;;4.60;2.10;;;22.80;61.70;;;;;;5041040;28;20460;-86
2023/11/26 09:54:50;;;;;;;3.40;2.20;;;22.90;62.00;;;;;;5024425;28;20447;-85
2023/11/26 09:57:17;;;;;;;6.40;2.33;;;23.00;61.90;;;;;;5031679;28;20916;-85
2023/11/26 09:59:44;;;;;;;5.37;2.40;;;22.90;61.70;;;;;;5040448;28;20452;-85
2023/11/26 10:02:12;;;;;;;4.33;2.70;;;23.00;61.60;;;;;;5040409;28;20473;-92
2023/11/26 10:04:47;;;;;;;2.97;2.47;;;23.00;61.50;;;;;;5052611;28;20520;-86
2023/11/26 10:07:14;;;;;;;2.63;2.00;;;23.00;61.50;;;;;;5048442;28;20487;-94
2023/11/26 10:09:40;;;;;;;2.80;1.90;;;23.00;61.50;;;;;;5054823;28;20434;-91
2023/11/26 10:12:08;;;;;;;4.40;2.17;;;23.10;61.60;;;;;;5060828;28;20437;-84
2023/11/26 10:14:35;;;;;;;6.20;1.93;;;23.10;61.60;;;;;;5060390;28;20444;-91
2023/11/26 10:17:09;;;;;;;3.00;2.47;;;23.10;61.60;;;;;;5046140;28;20434;-92
2023/11/26 10:19:37;;;;;;;2.20;2.00;;;23.10;61.60;;;;;;5052400;28;20512;-85
2023/11/26 10:22:04;;;;;;;2.63;2.10;;;23.10;61.60;;;;;;5056421;28;20462;-84
2023/11/26 10:24:32;;;;;;;2.50;2.30;;;23.10;61.50;;;;;;5059178;28;20433;-93
2023/11/26 10:26:59;;;;;;;4.23;2.63;;;23.20;61.70;;;;;;5067031;28;20484;-91
2023/11/26 10:29:30;;;;;;;2.60;2.40;;;23.20;61.90;;;;;;5065663;28;20437;-92
2023/11/26 10:32:05;;;;;;;2.23;2.03;;;23.20;61.90;;;;;;5065718;28;20449;-91
2023/11/26 10:34:34;;;;;;;2.27;2.00;;;23.20;61.80;;;;;;5065339;28;20444;-92
2023/11/26 10:37:03;;;;;;;2.03;1.93;;;23.20;61.70;;;;;;5065176;28;20464;-93
2023/11/26 10:39:30;;;;;;;3.43;2.10;;;23.20;61.70;;;;;;5060946;28;20487;-92
2023/11/26 10:41:59;;;;;;;3.40;2.07;;;23.20;61.60;;;;;;5061439;28;20857;-92
2023/11/26 10:44:28;;;;;;;3.47;2.37;;;23.20;61.50;;;;;;5060791;28;20441;-91
2023/11/26 10:47:01;;;;;;;3.13;2.80;;;23.20;60.90;;;;;;5061426;28;20484;-91
2023/11/26 10:49:37;;;;;;;2.53;2.33;;;23.20;60.70;;;;;;5058499;28;20433;-89
2023/11/26 10:52:12;;;;;;;2.50;2.30;;;23.20;61.40;;;;;;5058339;28;20433;-92
2023/11/26 10:54:48;;;;;;;4.20;2.13;;;23.10;59.80;;;;;;5057717;28;20421;-91
2023/11/26 10:57:25;;;;;;;2.20;2.10;;;23.00;59.20;;;;;;5056827;28;20436;-86
2023/11/26 10:59:55;;;;;;;2.20;2.00;;;23.00;60.20;;;;;;5055414;28;20444;-89
2023/11/26 11:02:22;;;;;;;2.73;2.07;;;23.00;61.20;;;;;;5055589;28;20445;-85
2023/11/26 11:04:49;;;;;;;3.63;1.83;;;23.00;61.70;;;;;;5053743;28;20524;-84
2023/11/26 11:07:17;;;;;;;2.03;1.93;;;23.00;61.30;;;;;;5054717;28;20846;-85
2023/11/26 11:09:52;;;;;;;2.63;2.00;;;23.10;61.40;;;;;;5054510;28;20441;-85
2023/11/26 11:12:24;;;;;;;2.27;1.97;;;23.10;61.20;;;;;;5054959;28;21023;-86
2023/11/26 11:14:54;;;;;;;3.20;1.90;;;23.10;61.00;;;;;;5053975;28;20445;-85
2023/11/26 11:17:29;;;;;;;3.60;2.60;;;23.10;60.90;;;;;;5052660;28;20441;-85
2023/11/26 11:20:11;;;;;;;3.77;2.40;;;23.20;60.80;;;;;;5059453;28;20441;-95
2023/11/26 11:22:41;;;;;;;2.97;2.70;;;23.10;59.80;;;;;;5058166;28;20473;-85
2023/11/26 11:25:11;;;;;;;4.17;2.37;;;23.00;59.00;;;;;;5053177;28;20446;-86
2023/11/26 11:27:57;;;;;;;5.30;2.60;;;22.90;59.60;;;;;;5053122;28;20532;-88
2023/11/26 11:30:52;;;;;;;3.50;2.10;;;22.90;60.50;;;;;;5053445;28;20524;-86
2023/11/26 11:33:18;;;;;;;3.73;2.10;;;23.00;60.90;;;;;;5048270;28;20441;-86
2023/11/26 11:35:45;;;;;;;2.27;2.07;;;23.00;60.90;;;;;;5054860;28;20452;-86
2023/11/26 11:38:15;;;;;;;2.60;1.83;;;23.10;60.80;;;;;;5055279;28;20440;-87
2023/11/26 11:41:13;;;;;;;3.43;2.20;;;23.10;60.60;;;;;;5055128;28;20465;-87
2023/11/26 11:43:40;;;;;;;4.30;2.33;;;23.20;60.50;;;;;;5055147;28;20841;-87
2023/11/26 11:46:44;;;;;;;2.67;2.33;;;23.20;60.50;;;;;;5054876;28;20503;-86
2023/11/26 11:49:12;;;;;;;2.50;2.30;;;23.30;60.60;;;;;;5054897;28;20532;-87
2023/11/26 11:51:42;;;;;;;3.33;2.00;;;23.20;60.50;;;;;;5054844;28;20841;-86
2023/11/26 11:54:47;;;;;;;6.57;2.07;;;23.30;60.50;;;;;;5055179;28;20785;-87
2023/11/26 11:57:16;;;;;;;3.30;1.70;;;23.30;60.50;;;;;;5036653;28;20437;-88
2023/11/26 11:59:44;;;;;;;4.67;2.33;;;23.30;60.50;;;;;;5054641;28;20440;-93
2023/11/26 12:02:12;;;;;;;5.73;2.30;;;23.30;60.50;;;;;;5054506;28;20444;-86
2023/11/26 12:04:44;;;;;;;2.57;2.37;;;23.40;60.50;;;;;;5054673;28;20516;-87
2023/11/26 12:07:11;;;;;;;3.70;2.27;;;23.40;60.50;;;;;;5054556;28;20554;-86
2023/11/26 12:09:39;;;;;;;4.23;2.07;;;23.40;60.50;;;;;;5054375;28;20852;-87
2023/11/26 12:12:08;;;;;;;2.20;2.00;;;23.40;60.40;;;;;;5054671;28;20459;-93
2023/11/26 12:14:35;;;;;;;2.33;2.13;;;23.40;60.50;;;;;;5054507;28;20433;-93
2023/11/26 12:17:07;;;;;;;2.80;2.07;;;23.50;60.70;;;;;;5053975;28;20449;-87
2023/11/26 12:19:38;;;;;;;4.07;2.20;;;23.40;60.50;;;;;;5054465;28;20437;-87
2023/11/26 12:22:06;;;;;;;2.03;1.77;;;23.40;60.50;;;;;;5054139;28;20460;-93
2023/11/26 12:24:33;;;;;;;3.50;2.50;;;23.50;60.70;;;;;;5054320;28;20429;-87
2023/11/26 12:27:00;;;;;;;2.50;2.17;;;23.40;60.50;;;;;;5054199;28;20512;-86
2023/11/26 12:29:30;;;;;;;2.53;1.90;;;23.40;60.50;;;;;;5054060;28;20434;-86
2023/11/26 12:31:58;;;;;;;2.20;2.00;;;23.40;60.60;;;;;;5054039;28;20488;-86
2023/11/26 12:34:25;;;;;;;1.80;1.70;;;23.40;60.50;;;;;;5054042;28;20521;-86
2023/11/26 12:36:52;;;;;;;3.70;2.20;;;23.40;60.60;;;;;;5054210;28;20440;-86
2023/11/26 12:39:21;;;;;;;2.57;1.80;;;23.60;60.80;;;;;;5054023;28;20437;-86
2023/11/26 12:41:49;;;;;;;2.20;2.00;;;23.40;60.40;;;;;;5053660;28;20468;-90
2023/11/26 12:44:17;;;;;;;2.70;1.90;;;23.40;60.40;;;;;;5053894;28;20481;-86
2023/11/26 12:46:45;;;;;;;3.07;1.83;;;23.50;60.50;;;;;;5053849;28;20485;-86
2023/11/26 12:49:16;;;;;;;3.83;2.10;;;23.40;60.40;;;;;;5053569;28;20797;-86
2023/11/26 12:51:44;;;;;;;1.83;1.73;;;23.40;60.40;;;;;;5053603;28;20434;-87
2023/11/26 12:54:11;;;;;;;1.97;1.87;;;23.50;60.60;;;;;;5053647;28;20436;-86
2023/11/26 12:56:39;;;;;;;1.97;1.80;;;23.40;60.50;;;;;;5053432;28;20441;-86
2023/11/26 12:59:06;;;;;;;5.90;2.10;;;23.40;60.50;;;;;;5053559;28;20435;-86
2023/11/26 13:01:35;;;;;;;2.17;1.97;;;23.40;60.50;;;;;;5053482;28;20437;-86
2023/11/26 13:04:04;;;;;;;3.10;1.70;;;23.40;60.50;;;;;;5053441;28;20449;-86
2023/11/26 13:06:32;;;;;;;2.00;1.80;;;23.40;60.50;;;;;;5053393;28;20473;-86
2023/11/26 13:09:07;;;;;;;3.27;1.90;;;23.40;60.50;;;;;;5053486;28;20452;-87
2023/11/26 13:11:36;;;;;;;2.30;2.10;;;23.40;60.50;;;;;;5053337;28;20507;-86